N12KBM KPDX-KPDX
Flight info
| Callsign | N12KBM |
|---|---|
| Flight time | 0h 23m |
| Altitude | VFR |
| Route | VFR |
| Aircraft | P28B/L-DOV/C |
Departure
| Time | 2026-05-08 02:11 |
|---|---|
| Airport | Portland International Airport (KPDX) |
Arrival
| Time | 2026-05-08 02:34 |
|---|---|
| Airport | Portland International Airport (KPDX) |
| Time | Latitude | Longitude | Altitude | Speed | Heading |
|---|---|---|---|---|---|
| 2026-05-08 01:51 | 45.58362 | -122.59953 | 27 ft | 0 kts | 119° |
| 2026-05-08 01:54 | 45.58354 | -122.59954 | 27 ft | 1 kts | 260° |
| 2026-05-08 01:54 | 45.58396 | -122.59941 | 28 ft | 12 kts | 32° |
| 2026-05-08 01:55 | 45.58419 | -122.59925 | 28 ft | 0 kts | 24° |
| 2026-05-08 02:00 | 45.58426 | -122.59920 | 29 ft | 6 kts | 27° |
| 2026-05-08 02:00 | 45.58501 | -122.59902 | 29 ft | 20 kts | 324° |
| 2026-05-08 02:01 | 45.58574 | -122.60062 | 31 ft | 19 kts | 299° |
| 2026-05-08 02:01 | 45.58612 | -122.60108 | 29 ft | 0 kts | 3° |
| 2026-05-08 02:10 | 45.58658 | -122.60079 | 29 ft | 18 kts | 24° |
| 2026-05-08 02:10 | 45.58749 | -122.60175 | 28 ft | 27 kts | 298° |
| 2026-05-08 02:10 | 45.58938 | -122.60665 | 94 ft | 74 kts | 298° |
| 2026-05-08 02:10 | 45.59231 | -122.61334 | 329 ft | 88 kts | 302° |
| 2026-05-08 02:11 | 45.59567 | -122.62116 | 639 ft | 93 kts | 288° |
| 2026-05-08 02:11 | 45.59259 | -122.62810 | 863 ft | 108 kts | 190° |
| 2026-05-08 02:11 | 45.58535 | -122.62213 | 800 ft | 139 kts | 127° |
| 2026-05-08 02:11 | 45.58015 | -122.60995 | 876 ft | 145 kts | 120° |
| 2026-05-08 02:12 | 45.57522 | -122.59768 | 1089 ft | 141 kts | 120° |
| 2026-05-08 02:12 | 45.57032 | -122.58535 | 1224 ft | 144 kts | 120° |
| 2026-05-08 02:12 | 45.56529 | -122.57352 | 1461 ft | 139 kts | 122° |
| 2026-05-08 02:12 | 45.56029 | -122.56119 | 1395 ft | 147 kts | 118° |
| 2026-05-08 02:13 | 45.55590 | -122.54816 | 1178 ft | 141 kts | 110° |
| 2026-05-08 02:13 | 45.55346 | -122.53563 | 1146 ft | 120 kts | 95° |
| 2026-05-08 02:13 | 45.55710 | -122.53035 | 1254 ft | 91 kts | 307° |
| 2026-05-08 02:13 | 45.56078 | -122.53876 | 904 ft | 105 kts | 308° |
| 2026-05-08 02:14 | 45.56553 | -122.54728 | 736 ft | 109 kts | 306° |
| 2026-05-08 02:14 | 45.56972 | -122.55635 | 562 ft | 108 kts | 300° |
| 2026-05-08 02:14 | 45.57321 | -122.56509 | 453 ft | 96 kts | 298° |
| 2026-05-08 02:14 | 45.57636 | -122.57359 | 277 ft | 89 kts | 297° |
| 2026-05-08 02:15 | 45.57906 | -122.58046 | 112 ft | 73 kts | 300° |
| 2026-05-08 02:15 | 45.58162 | -122.58693 | 44 ft | 74 kts | 299° |
| 2026-05-08 02:15 | 45.58381 | -122.59255 | 30 ft | 61 kts | 296° |
| 2026-05-08 02:15 | 45.58574 | -122.59757 | 107 ft | 59 kts | 296° |
| 2026-05-08 02:16 | 45.58816 | -122.60367 | 236 ft | 86 kts | 299° |
| 2026-05-08 02:16 | 45.59115 | -122.61100 | 623 ft | 74 kts | 302° |
| 2026-05-08 02:16 | 45.59388 | -122.61850 | 785 ft | 95 kts | 297° |
| 2026-05-08 02:16 | 45.59708 | -122.62735 | 1013 ft | 101 kts | 297° |
| 2026-05-08 02:17 | 45.60030 | -122.63616 | 1265 ft | 104 kts | 295° |
| 2026-05-08 02:17 | 45.60357 | -122.64548 | 1525 ft | 104 kts | 297° |
| 2026-05-08 02:17 | 45.60701 | -122.65491 | 1705 ft | 110 kts | 297° |
| 2026-05-08 02:17 | 45.61045 | -122.66513 | 1792 ft | 120 kts | 294° |
| 2026-05-08 02:18 | 45.61458 | -122.67625 | 1753 ft | 136 kts | 299° |
| 2026-05-08 02:18 | 45.61927 | -122.68783 | 1951 ft | 133 kts | 299° |
| 2026-05-08 02:18 | 45.62383 | -122.69830 | 2348 ft | 120 kts | 304° |
| 2026-05-08 02:18 | 45.62881 | -122.70878 | 2445 ft | 132 kts | 304° |
| 2026-05-08 02:19 | 45.63161 | -122.72078 | 2504 ft | 140 kts | 258° |
| 2026-05-08 02:19 | 45.62477 | -122.73093 | 2531 ft | 141 kts | 202° |
| 2026-05-08 02:19 | 45.61585 | -122.72805 | 2671 ft | 146 kts | 136° |
| 2026-05-08 02:19 | 45.61071 | -122.71572 | 2794 ft | 141 kts | 109° |
| 2026-05-08 02:20 | 45.60763 | -122.70251 | 2950 ft | 140 kts | 110° |
| 2026-05-08 02:20 | 45.60346 | -122.69001 | 3040 ft | 144 kts | 121° |
| 2026-05-08 02:20 | 45.59843 | -122.67737 | 3005 ft | 151 kts | 107° |
| 2026-05-08 02:20 | 45.59550 | -122.66256 | 2145 ft | 176 kts | 117° |
| 2026-05-08 02:21 | 45.58884 | -122.64630 | 1637 ft | 180 kts | 123° |
| 2026-05-08 02:21 | 45.58231 | -122.63148 | 1231 ft | 179 kts | 123° |
| 2026-05-08 02:21 | 45.57634 | -122.61835 | 845 ft | 139 kts | 123° |
| 2026-05-08 02:21 | 45.57155 | -122.60755 | 818 ft | 124 kts | 122° |
| 2026-05-08 02:22 | 45.56668 | -122.59758 | 960 ft | 123 kts | 127° |
| 2026-05-08 02:22 | 45.56235 | -122.58719 | 1071 ft | 118 kts | 115° |
| 2026-05-08 02:22 | 45.55935 | -122.57619 | 1136 ft | 125 kts | 106° |
| 2026-05-08 02:22 | 45.56022 | -122.56299 | 701 ft | 132 kts | 48° |
| 2026-05-08 02:23 | 45.56631 | -122.56546 | 560 ft | 104 kts | 324° |
| 2026-05-08 02:23 | 45.57207 | -122.56989 | 369 ft | 87 kts | 333° |
| 2026-05-08 02:23 | 45.57683 | -122.57433 | 192 ft | 77 kts | 304° |
| 2026-05-08 02:23 | 45.57939 | -122.58109 | 117 ft | 75 kts | 295° |
| 2026-05-08 02:24 | 45.58171 | -122.58719 | 33 ft | 61 kts | 299° |
| 2026-05-08 02:24 | 45.58395 | -122.59258 | 118 ft | 74 kts | 302° |
| 2026-05-08 02:24 | 45.58686 | -122.59998 | 272 ft | 99 kts | 295° |
| 2026-05-08 02:24 | 45.59045 | -122.60934 | 490 ft | 111 kts | 301° |
| 2026-05-08 02:25 | 45.59466 | -122.61905 | 743 ft | 117 kts | 301° |
| 2026-05-08 02:25 | 45.59888 | -122.62901 | 996 ft | 122 kts | 300° |
| 2026-05-08 02:25 | 45.60350 | -122.63971 | 1178 ft | 126 kts | 300° |
| 2026-05-08 02:25 | 45.60547 | -122.65188 | 1357 ft | 129 kts | 274° |
| 2026-05-08 02:26 | 45.60720 | -122.66385 | 1563 ft | 127 kts | 267° |
| 2026-05-08 02:26 | 45.60024 | -122.67038 | 1409 ft | 148 kts | 164° |
| 2026-05-08 02:26 | 45.59141 | -122.66303 | 1516 ft | 143 kts | 144° |
| 2026-05-08 02:26 | 45.58441 | -122.65208 | 1476 ft | 150 kts | 129° |
| 2026-05-08 02:27 | 45.57787 | -122.64065 | 1519 ft | 153 kts | 130° |
| 2026-05-08 02:27 | 45.57119 | -122.62891 | 1541 ft | 152 kts | 127° |
| 2026-05-08 02:27 | 45.56551 | -122.61635 | 1608 ft | 150 kts | 123° |
| 2026-05-08 02:27 | 45.56055 | -122.60300 | 1639 ft | 151 kts | 118° |
| 2026-05-08 02:28 | 45.55549 | -122.59017 | 1779 ft | 148 kts | 121° |
| 2026-05-08 02:28 | 45.54980 | -122.57778 | 1839 ft | 150 kts | 127° |
| 2026-05-08 02:28 | 45.54332 | -122.56610 | 1909 ft | 151 kts | 129° |
| 2026-05-08 02:28 | 45.53694 | -122.55418 | 1830 ft | 154 kts | 121° |
| 2026-05-08 02:29 | 45.53230 | -122.54028 | 1853 ft | 153 kts | 117° |
| 2026-05-08 02:29 | 45.52719 | -122.52712 | 1941 ft | 151 kts | 124° |
| 2026-05-08 02:29 | 45.52097 | -122.51514 | 1997 ft | 149 kts | 125° |
| 2026-05-08 02:29 | 45.51618 | -122.50173 | 1958 ft | 154 kts | 109° |
| 2026-05-08 02:30 | 45.51332 | -122.48731 | 2107 ft | 148 kts | 104° |
| 2026-05-08 02:30 | 45.51067 | -122.47305 | 2134 ft | 153 kts | 105° |
| 2026-05-08 02:30 | 45.50998 | -122.45769 | 1876 ft | 164 kts | 69° |
| 2026-05-08 02:30 | 45.51927 | -122.45747 | 1249 ft | 170 kts | 302° |
| 2026-05-08 02:31 | 45.52194 | -122.47194 | 1573 ft | 141 kts | 282° |
| 2026-05-08 02:31 | 45.52721 | -122.48417 | 1464 ft | 152 kts | 311° |
| 2026-05-08 02:31 | 45.53458 | -122.49553 | 1276 ft | 162 kts | 313° |
| 2026-05-08 02:31 | 45.54247 | -122.50701 | 1095 ft | 156 kts | 314° |
| 2026-05-08 02:32 | 45.54937 | -122.51674 | 849 ft | 129 kts | 313° |
| 2026-05-08 02:32 | 45.55523 | -122.52620 | 637 ft | 124 kts | 310° |
| 2026-05-08 02:32 | 45.56079 | -122.53595 | 529 ft | 137 kts | 307° |
| 2026-05-08 02:32 | 45.56552 | -122.54630 | 408 ft | 108 kts | 300° |
| 2026-05-08 02:33 | 45.56881 | -122.55449 | 285 ft | 83 kts | 298° |
| 2026-05-08 02:33 | 45.57171 | -122.56202 | 285 ft | 93 kts | 297° |
| 2026-05-08 02:33 | 45.57482 | -122.56964 | 235 ft | 80 kts | 300° |
| 2026-05-08 02:33 | 45.57729 | -122.57594 | 149 ft | 72 kts | 297° |
| 2026-05-08 02:34 | 45.57981 | -122.58230 | 82 ft | 70 kts | 300° |
| 2026-05-08 02:34 | 45.58204 | -122.58801 | 35 ft | 60 kts | 299° |
| 2026-05-08 02:34 | 45.58392 | -122.59267 | 27 ft | 49 kts | 301° |
| 2026-05-08 02:34 | 45.58544 | -122.59651 | 33 ft | 43 kts | 299° |
| 2026-05-08 02:35 | 45.58645 | -122.60008 | 31 ft | 19 kts | 277° |
| 2026-05-08 02:35 | 45.58643 | -122.60054 | 30 ft | 16 kts | 264° |
| 2026-05-08 02:35 | 45.58562 | -122.60045 | 31 ft | 18 kts | 119° |
| 2026-05-08 02:35 | 45.58499 | -122.59899 | 29 ft | 16 kts | 152° |
| 2026-05-08 02:36 | 45.58404 | -122.59935 | 28 ft | 14 kts | 206° |
| 2026-05-08 02:36 | 45.58357 | -122.59911 | 28 ft | 11 kts | 124° |
| 2026-05-08 02:36 | 45.58348 | -122.59889 | 28 ft | 0 kts | 119° |
| 2026-05-08 02:39 | 45.58362 | -122.59953 | 28 ft | 0 kts | 118° |